Time,TemperatureF,DewpointF,PressureIn,WindDirection,WindDirectionDegrees,WindSpeedMPH,WindSpeedGustMPH,Humidity,HourlyPrecipIn,Conditions,Clouds,dailyrainin,SoftwareType,DateUTC
2013-07-01 00:02:00,61.0,48.0,-100.00,SW,231,4.0,14.0,62,0.00,,,0.00,,2013-07-01 06:02:00,
2013-07-01 00:12:00,61.0,48.0,-100.00,SW,231,4.0,14.0,62,0.00,,,0.00,,2013-07-01 06:12:00,
2013-07-01 00:24:00,61.0,48.0,-100.00,SW,231,4.0,14.0,62,0.00,,,0.00,,2013-07-01 06:24:00,
2013-07-01 00:33:00,61.0,48.0,-100.00,SW,231,4.0,14.0,62,0.00,,,0.00,,2013-07-01 06:33:00,
2013-07-01 00:40:00,59.0,46.0,-100.00,NW,306,2.0,9.0,61,0.00,,,0.00,,2013-07-01 06:40:00,
2013-07-01 01:01:00,59.0,46.0,-100.00,NW,306,2.0,9.0,61,0.00,,,0.00,,2013-07-01 07:01:00,
2013-07-01 01:11:00,59.0,46.0,-100.00,NW,306,2.0,9.0,61,0.00,,,0.00,,2013-07-01 07:11:00,
2013-07-01 01:22:00,59.0,46.0,-100.00,NW,306,2.0,9.0,61,0.00,,,0.00,,2013-07-01 07:22:00,
2013-07-01 01:33:00,59.0,46.0,-100.00,NW,306,2.0,9.0,61,0.00,,,0.00,,2013-07-01 07:33:00,
2013-07-01 01:40:00,58.0,48.0,-100.00,NW,312,3.0,11.0,70,0.00,,,0.00,,2013-07-01 07:40:00,
2013-07-01 02:11:00,58.0,48.0,-100.00,NW,312,3.0,11.0,70,0.00,,,0.00,,2013-07-01 08:11:00,
2013-07-01 02:22:00,58.0,48.0,-100.00,NW,312,3.0,11.0,70,0.00,,,0.00,,2013-07-01 08:22:00,
2013-07-01 02:33:00,58.0,48.0,-100.00,NW,312,3.0,11.0,70,0.00,,,0.00,,2013-07-01 08:33:00,
2013-07-01 02:40:00,54.0,45.0,-100.00,NW,309,1.0,5.0,72,0.00,,,0.00,,2013-07-01 08:40:00,
2013-07-01 03:11:00,54.0,45.0,-100.00,NW,309,1.0,5.0,72,0.00,,,0.00,,2013-07-01 09:11:00,
2013-07-01 03:22:00,54.0,45.0,-100.00,NW,309,1.0,5.0,72,0.00,,,0.00,,2013-07-01 09:22:00,
2013-07-01 03:34:00,54.0,45.0,-100.00,NW,309,1.0,5.0,72,0.00,,,0.00,,2013-07-01 09:34:00,
2013-07-01 03:40:00,53.0,45.0,-100.00,WNW,294,1.0,4.0,74,0.00,,,0.00,,2013-07-01 09:40:00,
2013-07-01 04:11:00,53.0,45.0,-100.00,WNW,294,1.0,4.0,74,0.00,,,0.00,,2013-07-01 10:11:00,
2013-07-01 04:22:00,53.0,45.0,-100.00,WNW,294,1.0,4.0,74,0.00,,,0.00,,2013-07-01 10:22:00,
2013-07-01 04:33:00,53.0,45.0,-100.00,WNW,294,1.0,4.0,74,0.00,,,0.00,,2013-07-01 10:33:00,
2013-07-01 04:40:00,52.0,44.0,-100.00,WNW,293,1.0,4.0,75,0.00,,,0.00,,2013-07-01 10:40:00,
2013-07-01 05:02:00,52.0,44.0,-100.00,WNW,293,1.0,4.0,75,0.00,,,0.00,,2013-07-01 11:02:00,
2013-07-01 05:11:00,52.0,44.0,-100.00,WNW,293,1.0,4.0,75,0.00,,,0.00,,2013-07-01 11:11:00,
2013-07-01 05:22:00,52.0,44.0,-100.00,WNW,293,1.0,4.0,75,0.00,,,0.00,,2013-07-01 11:22:00,
2013-07-01 05:33:00,52.0,44.0,-100.00,WNW,293,1.0,4.0,75,0.00,,,0.00,,2013-07-01 11:33:00,
2013-07-01 05:40:00,51.0,45.0,-100.00,WNW,298,0.0,4.0,79,0.00,,,-99.99,,2013-07-01 11:40:00,
2013-07-01 06:11:00,51.0,45.0,-100.00,WNW,298,0.0,4.0,79,0.00,,,-99.99,,2013-07-01 12:11:00,
2013-07-01 06:22:00,51.0,45.0,-100.00,WNW,298,0.0,4.0,79,0.00,,,-99.99,,2013-07-01 12:22:00,
2013-07-01 06:33:00,51.0,45.0,-100.00,WNW,298,0.0,4.0,79,0.00,,,-99.99,,2013-07-01 12:33:00,
2013-07-01 06:40:00,55.0,47.0,-100.00,NW,306,1.0,3.0,73,0.00,,,0.00,,2013-07-01 12:40:00,
2013-07-01 07:12:00,55.0,47.0,-100.00,NW,306,1.0,3.0,73,0.00,,,0.00,,2013-07-01 13:12:00,
2013-07-01 07:23:00,55.0,47.0,-100.00,NW,306,1.0,3.0,73,0.00,,,0.00,,2013-07-01 13:23:00,
2013-07-01 07:33:00,55.0,47.0,-100.00,NW,306,1.0,3.0,73,0.00,,,0.00,,2013-07-01 13:33:00,
2013-07-01 07:40:00,64.0,50.0,-100.00,ESE,111,3.0,5.0,61,0.00,,,0.00,,2013-07-01 13:40:00,
2013-07-01 08:34:00,64.0,50.0,-100.00,ESE,111,3.0,5.0,61,0.00,,,0.00,,2013-07-01 14:34:00,
2013-07-01 08:40:00,65.0,50.0,-100.00,SE,128,4.0,7.0,58,0.00,,,0.00,,2013-07-01 14:40:00,
2013-07-01 09:11:00,65.0,50.0,-100.00,SE,128,4.0,7.0,58,0.00,,,0.00,,2013-07-01 15:11:00,
2013-07-01 09:23:00,65.0,50.0,-100.00,SE,128,4.0,7.0,58,0.00,,,0.00,,2013-07-01 15:23:00,
2013-07-01 09:34:00,65.0,50.0,-100.00,SE,128,4.0,7.0,58,0.00,,,0.00,,2013-07-01 15:34:00,
2013-07-01 09:40:00,70.0,50.0,-100.00,East,98,4.0,7.0,49,0.00,,,0.00,,2013-07-01 15:40:00,
2013-07-01 10:11:00,70.0,50.0,-100.00,East,98,4.0,7.0,49,0.00,,,0.00,,2013-07-01 16:11:00,
2013-07-01 10:22:00,70.0,50.0,-100.00,East,98,4.0,7.0,49,0.00,,,0.00,,2013-07-01 16:22:00,
2013-07-01 10:33:00,70.0,50.0,-100.00,East,98,4.0,7.0,49,0.00,,,0.00,,2013-07-01 16:33:00,
2013-07-01 10:40:00,72.0,49.0,-100.00,NE,45,4.0,9.0,44,0.00,,,0.00,,2013-07-01 16:40:00,
2013-07-01 11:12:00,72.0,49.0,-100.00,NE,45,4.0,9.0,44,0.00,,,0.00,,2013-07-01 17:12:00,
2013-07-01 11:23:00,72.0,49.0,-100.00,NE,45,4.0,9.0,44,0.00,,,0.00,,2013-07-01 17:23:00,
2013-07-01 11:33:00,72.0,49.0,-100.00,NE,45,4.0,9.0,44,0.00,,,0.00,,2013-07-01 17:33:00,
2013-07-01 11:40:00,76.0,48.0,-100.00,ENE,78,4.0,9.0,37,0.00,,,0.00,,2013-07-01 17:40:00,
2013-07-01 12:11:00,76.0,48.0,-100.00,ENE,78,4.0,9.0,37,0.00,,,0.00,,2013-07-01 18:11:00,
2013-07-01 12:22:00,76.0,48.0,-100.00,ENE,78,4.0,9.0,37,0.00,,,0.00,,2013-07-01 18:22:00,
2013-07-01 12:33:00,76.0,48.0,-100.00,ENE,78,4.0,9.0,37,0.00,,,0.00,,2013-07-01 18:33:00,
2013-07-01 12:40:00,81.0,48.0,-100.00,ESE,102,5.0,11.0,32,0.00,,,0.00,,2013-07-01 18:40:00,
2013-07-01 13:11:00,81.0,48.0,-100.00,ESE,102,5.0,11.0,32,0.00,,,0.00,,2013-07-01 19:11:00,
2013-07-01 13:22:00,81.0,48.0,-100.00,ESE,102,5.0,11.0,32,0.00,,,0.00,,2013-07-01 19:22:00,
2013-07-01 13:33:00,81.0,48.0,-100.00,ESE,102,5.0,11.0,32,0.00,,,0.00,,2013-07-01 19:33:00,
2013-07-01 13:40:00,82.0,46.0,-100.00,SE,128,6.0,11.0,28,0.00,,,0.00,,2013-07-01 19:40:00,
2013-07-01 14:11:00,82.0,46.0,-100.00,SE,128,6.0,11.0,28,0.00,,,0.00,,2013-07-01 20:11:00,
2013-07-01 14:22:00,82.0,46.0,-100.00,SE,128,6.0,11.0,28,0.00,,,0.00,,2013-07-01 20:22:00,
2013-07-01 14:34:00,82.0,46.0,-100.00,SE,128,6.0,11.0,28,0.00,,,0.00,,2013-07-01 20:34:00,
2013-07-01 14:40:00,84.0,41.0,-100.00,SE,136,4.0,11.0,22,0.00,,,0.00,,2013-07-01 20:40:00,
2013-07-01 15:11:00,84.0,41.0,-100.00,SE,136,4.0,11.0,22,0.00,,,0.00,,2013-07-01 21:11:00,
2013-07-01 15:24:00,84.0,41.0,-100.00,SE,136,4.0,11.0,22,0.00,,,0.00,,2013-07-01 21:24:00,
2013-07-01 15:34:00,84.0,41.0,-100.00,SE,136,4.0,11.0,22,0.00,,,0.00,,2013-07-01 21:34:00,
2013-07-01 15:40:00,85.0,37.0,-100.00,NW,324,6.0,14.0,18,0.00,,,0.00,,2013-07-01 21:40:00,
2013-07-01 16:11:00,85.0,37.0,-100.00,NW,324,6.0,14.0,18,0.00,,,0.00,,2013-07-01 22:11:00,
2013-07-01 16:24:00,85.0,37.0,-100.00,NW,324,6.0,14.0,18,0.00,,,0.00,,2013-07-01 22:24:00,
2013-07-01 16:33:00,85.0,37.0,-100.00,NW,324,6.0,14.0,18,0.00,,,0.00,,2013-07-01 22:33:00,
2013-07-01 16:40:00,85.0,42.0,-100.00,ESE,120,7.0,15.0,22,0.00,,,0.00,,2013-07-01 22:40:00,
2013-07-01 17:11:00,85.0,42.0,-100.00,ESE,120,7.0,15.0,22,0.00,,,0.00,,2013-07-01 23:11:00,
2013-07-01 17:22:00,85.0,42.0,-100.00,ESE,120,7.0,15.0,22,0.00,,,0.00,,2013-07-01 23:22:00,
2013-07-01 17:33:00,85.0,42.0,-100.00,ESE,120,7.0,15.0,22,0.00,,,0.00,,2013-07-01 23:33:00,
2013-07-01 17:40:00,81.0,46.0,-100.00,South,184,8.0,18.0,29,0.00,,,0.00,,2013-07-01 23:40:00,
2013-07-01 18:01:00,81.0,46.0,-100.00,South,184,8.0,18.0,29,0.00,,,0.00,,2013-07-02 00:01:00,
2013-07-01 18:12:00,81.0,46.0,-100.00,South,184,8.0,18.0,29,0.00,,,0.00,,2013-07-02 00:12:00,
2013-07-01 18:22:00,81.0,46.0,-100.00,South,184,8.0,18.0,29,0.00,,,0.00,,2013-07-02 00:22:00,
2013-07-01 18:34:00,81.0,46.0,-100.00,South,184,8.0,18.0,29,0.00,,,0.00,,2013-07-02 00:34:00,
2013-07-01 18:40:00,73.0,45.0,-100.00,SSW,206,9.0,20.0,37,0.00,,,0.00,,2013-07-02 00:40:00,
2013-07-01 19:11:00,73.0,45.0,-100.00,SSW,206,9.0,20.0,37,0.00,,,0.00,,2013-07-02 01:11:00,
2013-07-01 19:22:00,73.0,45.0,-100.00,SSW,206,9.0,20.0,37,0.00,,,0.00,,2013-07-02 01:22:00,
2013-07-01 19:33:00,73.0,45.0,-100.00,SSW,206,9.0,20.0,37,0.00,,,0.00,,2013-07-02 01:33:00,
2013-07-01 19:40:00,70.0,45.0,-100.00,South,178,8.0,20.0,41,0.00,,,0.00,,2013-07-02 01:40:00,
2013-07-01 20:11:00,70.0,45.0,-100.00,South,178,8.0,20.0,41,0.00,,,0.00,,2013-07-02 02:11:00,
2013-07-01 20:22:00,70.0,45.0,-100.00,South,178,8.0,20.0,41,0.00,,,0.00,,2013-07-02 02:22:00,
2013-07-01 20:33:00,70.0,45.0,-100.00,South,178,8.0,20.0,41,0.00,,,0.00,,2013-07-02 02:33:00,
2013-07-01 20:40:00,66.0,50.0,-100.00,South,184,8.0,17.0,57,0.00,,,0.00,,2013-07-02 02:40:00,
2013-07-01 21:12:00,66.0,50.0,-100.00,South,184,8.0,17.0,57,0.00,,,0.00,,2013-07-02 03:12:00,
2013-07-01 21:24:00,66.0,50.0,-100.00,South,184,8.0,17.0,57,0.00,,,0.00,,2013-07-02 03:24:00,
2013-07-01 21:32:00,66.0,50.0,-100.00,South,184,8.0,17.0,57,0.00,,,0.00,,2013-07-02 03:32:00,
2013-07-01 21:40:00,63.0,50.0,-100.00,South,184,7.0,18.0,62,0.00,,,0.00,,2013-07-02 03:40:00,
2013-07-01 22:02:00,63.0,50.0,-100.00,South,184,7.0,18.0,62,0.00,,,0.00,,2013-07-02 04:02:00,
2013-07-01 22:11:00,63.0,50.0,-100.00,South,184,7.0,18.0,62,0.00,,,0.00,,2013-07-02 04:11:00,
2013-07-01 22:22:00,63.0,50.0,-100.00,South,184,7.0,18.0,62,0.00,,,0.00,,2013-07-02 04:22:00,
2013-07-01 22:32:00,63.0,50.0,-100.00,South,184,7.0,18.0,62,0.00,,,0.00,,2013-07-02 04:32:00,
2013-07-01 22:40:00,62.0,50.0,-100.00,SSW,196,6.0,15.0,64,0.00,,,0.00,,2013-07-02 04:40:00,
2013-07-01 23:11:00,62.0,50.0,-100.00,SSW,196,6.0,15.0,64,0.00,,,0.00,,2013-07-02 05:11:00,
2013-07-01 23:22:00,62.0,50.0,-100.00,SSW,196,6.0,15.0,64,0.00,,,0.00,,2013-07-02 05:22:00,
2013-07-01 23:32:00,62.0,50.0,-100.00,SSW,196,6.0,15.0,64,0.00,,,0.00,,2013-07-02 05:32:00,
2013-07-01 23:40:00,60.0,50.0,-100.00,South,174,6.0,13.0,70,0.00,,,0.00,,2013-07-02 05:40:00,